sensor_id;sensor_type;location;lat;lon;timestamp;temperature;humidity
57636;DHT22;43465;50.728;4.160;2023-03-23T00:01:21;13.50;99.90
57636;DHT22;43465;50.728;4.160;2023-03-23T00:03:51;13.50;99.90
57636;DHT22;43465;50.728;4.160;2023-03-23T00:06:18;13.50;99.90
57636;DHT22;43465;50.728;4.160;2023-03-23T00:08:46;13.50;99.90
57636;DHT22;43465;50.728;4.160;2023-03-23T00:11:12;13.40;99.90
57636;DHT22;43465;50.728;4.160;2023-03-23T00:13:41;13.40;99.90
57636;DHT22;43465;50.728;4.160;2023-03-23T00:16:07;13.40;99.90
57636;DHT22;43465;50.728;4.160;2023-03-23T00:18:50;13.50;99.90
57636;DHT22;43465;50.728;4.160;2023-03-23T00:21:20;13.50;99.90
57636;DHT22;43465;50.728;4.160;2023-03-23T00:23:46;13.40;99.90
57636;DHT22;43465;50.728;4.160;2023-03-23T00:26:12;13.30;99.90
57636;DHT22;43465;50.728;4.160;2023-03-23T00:28:38;13.20;99.90
57636;DHT22;43465;50.728;4.160;2023-03-23T00:31:06;13.20;99.90
57636;DHT22;43465;50.728;4.160;2023-03-23T00:33:34;13.10;99.90
57636;DHT22;43465;50.728;4.160;2023-03-23T00:36:13;13.20;99.90
57636;DHT22;43465;50.728;4.160;2023-03-23T00:38:40;13.20;99.90
57636;DHT22;43465;50.728;4.160;2023-03-23T00:41:07;13.10;99.90
57636;DHT22;43465;50.728;4.160;2023-03-23T00:43:36;13.00;99.90
57636;DHT22;43465;50.728;4.160;2023-03-23T00:46:03;13.00;99.90
57636;DHT22;43465;50.728;4.160;2023-03-23T00:48:34;13.00;99.90
57636;DHT22;43465;50.728;4.160;2023-03-23T00:51:01;13.00;99.90
57636;DHT22;43465;50.728;4.160;2023-03-23T00:53:32;13.00;99.90
57636;DHT22;43465;50.728;4.160;2023-03-23T00:55:57;13.00;99.90
57636;DHT22;43465;50.728;4.160;2023-03-23T00:58:23;13.00;99.90
57636;DHT22;43465;50.728;4.160;2023-03-23T01:00:49;13.00;99.90
57636;DHT22;43465;50.728;4.160;2023-03-23T01:03:14;13.00;99.90
57636;DHT22;43465;50.728;4.160;2023-03-23T01:05:44;13.00;99.90
57636;DHT22;43465;50.728;4.160;2023-03-23T01:08:13;13.00;99.90
57636;DHT22;43465;50.728;4.160;2023-03-23T01:10:39;13.00;99.90
57636;DHT22;43465;50.728;4.160;2023-03-23T01:13:06;13.00;99.90
57636;DHT22;43465;50.728;4.160;2023-03-23T01:15:32;13.00;99.90
57636;DHT22;43465;50.728;4.160;2023-03-23T01:17:58;13.00;99.90
57636;DHT22;43465;50.728;4.160;2023-03-23T01:20:25;13.00;99.90
57636;DHT22;43465;50.728;4.160;2023-03-23T01:22:52;13.00;99.90
57636;DHT22;43465;50.728;4.160;2023-03-23T01:25:26;12.90;99.90
57636;DHT22;43465;50.728;4.160;2023-03-23T01:27:52;12.90;99.90
57636;DHT22;43465;50.728;4.160;2023-03-23T01:30:17;13.00;99.90
57636;DHT22;43465;50.728;4.160;2023-03-23T01:32:43;13.00;99.90
57636;DHT22;43465;50.728;4.160;2023-03-23T01:35:09;13.00;99.90
57636;DHT22;43465;50.728;4.160;2023-03-23T01:37:35;13.00;99.90
57636;DHT22;43465;50.728;4.160;2023-03-23T01:40:01;13.00;99.90
57636;DHT22;43465;50.728;4.160;2023-03-23T01:42:35;13.00;99.90
57636;DHT22;43465;50.728;4.160;2023-03-23T01:47:47;13.00;99.90
57636;DHT22;43465;50.728;4.160;2023-03-23T01:50:14;13.00;99.90
57636;DHT22;43465;50.728;4.160;2023-03-23T01:52:40;13.00;99.90
57636;DHT22;43465;50.728;4.160;2023-03-23T01:55:06;13.00;99.90
57636;DHT22;43465;50.728;4.160;2023-03-23T01:57:33;13.00;99.90
57636;DHT22;43465;50.728;4.160;2023-03-23T02:00:03;13.00;99.90
57636;DHT22;43465;50.728;4.160;2023-03-23T02:02:45;13.00;99.90
57636;DHT22;43465;50.728;4.160;2023-03-23T02:05:21;12.90;99.90
57636;DHT22;43465;50.728;4.160;2023-03-23T02:07:50;12.90;99.90
57636;DHT22;43465;50.728;4.160;2023-03-23T02:10:16;12.90;99.90
57636;DHT22;43465;50.728;4.160;2023-03-23T02:12:42;12.90;99.90
57636;DHT22;43465;50.728;4.160;2023-03-23T02:15:08;12.90;99.90
57636;DHT22;43465;50.728;4.160;2023-03-23T02:18:06;12.90;99.90
57636;DHT22;43465;50.728;4.160;2023-03-23T02:26:09;12.90;99.90
57636;DHT22;43465;50.728;4.160;2023-03-23T02:34:07;12.80;99.90
57636;DHT22;43465;50.728;4.160;2023-03-23T02:42:08;12.80;99.90
57636;DHT22;43465;50.728;4.160;2023-03-23T02:44:37;12.80;99.90
57636;DHT22;43465;50.728;4.160;2023-03-23T02:47:06;12.80;99.90
57636;DHT22;43465;50.728;4.160;2023-03-23T02:49:34;12.70;99.90
57636;DHT22;43465;50.728;4.160;2023-03-23T02:52:05;12.80;99.90
57636;DHT22;43465;50.728;4.160;2023-03-23T02:54:32;12.80;99.90
57636;DHT22;43465;50.728;4.160;2023-03-23T02:56:58;12.80;99.90
57636;DHT22;43465;50.728;4.160;2023-03-23T02:59:25;12.90;99.90
57636;DHT22;43465;50.728;4.160;2023-03-23T03:04:25;12.90;99.90
57636;DHT22;43465;50.728;4.160;2023-03-23T03:12:33;12.90;99.90
57636;DHT22;43465;50.728;4.160;2023-03-23T03:15:17;12.90;99.90
57636;DHT22;43465;50.728;4.160;2023-03-23T03:18:03;12.90;99.90
57636;DHT22;43465;50.728;4.160;2023-03-23T03:20:33;12.90;99.90
57636;DHT22;43465;50.728;4.160;2023-03-23T03:23:02;12.90;99.90
57636;DHT22;43465;50.728;4.160;2023-03-23T03:25:28;12.90;99.90
57636;DHT22;43465;50.728;4.160;2023-03-23T03:27:55;13.00;99.90
57636;DHT22;43465;50.728;4.160;2023-03-23T03:30:26;12.90;99.90
57636;DHT22;43465;50.728;4.160;2023-03-23T03:32:55;12.90;99.90
57636;DHT22;43465;50.728;4.160;2023-03-23T03:35:23;12.90;99.90
57636;DHT22;43465;50.728;4.160;2023-03-23T03:37:50;12.90;99.90
57636;DHT22;43465;50.728;4.160;2023-03-23T03:40:18;12.90;99.90
57636;DHT22;43465;50.728;4.160;2023-03-23T03:42:45;12.90;99.90
57636;DHT22;43465;50.728;4.160;2023-03-23T03:45:20;12.90;99.90
57636;DHT22;43465;50.728;4.160;2023-03-23T03:47:46;12.90;99.90
57636;DHT22;43465;50.728;4.160;2023-03-23T03:50:11;13.00;99.90
57636;DHT22;43465;50.728;4.160;2023-03-23T03:52:38;13.00;99.90
57636;DHT22;43465;50.728;4.160;2023-03-23T03:55:06;12.90;99.90
57636;DHT22;43465;50.728;4.160;2023-03-23T03:57:33;12.90;99.90
57636;DHT22;43465;50.728;4.160;2023-03-23T03:59:58;12.90;99.90
57636;DHT22;43465;50.728;4.160;2023-03-23T04:02:24;12.90;99.90
57636;DHT22;43465;50.728;4.160;2023-03-23T04:04:50;12.80;99.90
57636;DHT22;43465;50.728;4.160;2023-03-23T04:07:19;12.80;99.90
57636;DHT22;43465;50.728;4.160;2023-03-23T04:09:45;12.80;99.90
57636;DHT22;43465;50.728;4.160;2023-03-23T04:12:14;12.70;99.90
57636;DHT22;43465;50.728;4.160;2023-03-23T04:14:40;12.70;99.90
57636;DHT22;43465;50.728;4.160;2023-03-23T04:17:06;12.70;99.90
57636;DHT22;43465;50.728;4.160;2023-03-23T04:19:35;12.70;99.90
57636;DHT22;43465;50.728;4.160;2023-03-23T04:22:03;12.70;99.90
57636;DHT22;43465;50.728;4.160;2023-03-23T04:24:28;12.70;99.90
57636;DHT22;43465;50.728;4.160;2023-03-23T04:26:57;12.70;99.90
57636;DHT22;43465;50.728;4.160;2023-03-23T04:29:23;12.70;99.90
57636;DHT22;43465;50.728;4.160;2023-03-23T04:31:49;12.70;99.90
57636;DHT22;43465;50.728;4.160;2023-03-23T04:34:16;12.70;99.90
57636;DHT22;43465;50.728;4.160;2023-03-23T04:36:43;12.70;99.90
57636;DHT22;43465;50.728;4.160;2023-03-23T04:39:09;12.70;99.90
57636;DHT22;43465;50.728;4.160;2023-03-23T04:41:39;12.70;99.90
57636;DHT22;43465;50.728;4.160;2023-03-23T04:44:07;12.60;99.90
57636;DHT22;43465;50.728;4.160;2023-03-23T04:46:32;12.60;99.90
57636;DHT22;43465;50.728;4.160;2023-03-23T04:48:59;12.50;99.90
57636;DHT22;43465;50.728;4.160;2023-03-23T04:51:25;12.50;99.90
57636;DHT22;43465;50.728;4.160;2023-03-23T04:53:52;12.50;99.90
57636;DHT22;43465;50.728;4.160;2023-03-23T04:56:18;12.40;99.90
57636;DHT22;43465;50.728;4.160;2023-03-23T04:58:45;12.40;99.90
57636;DHT22;43465;50.728;4.160;2023-03-23T05:01:11;12.40;99.90
57636;DHT22;43465;50.728;4.160;2023-03-23T05:03:40;12.40;99.90
57636;DHT22;43465;50.728;4.160;2023-03-23T05:06:06;12.40;99.90
57636;DHT22;43465;50.728;4.160;2023-03-23T05:08:32;12.40;99.90
57636;DHT22;43465;50.728;4.160;2023-03-23T05:11:00;12.40;99.90
57636;DHT22;43465;50.728;4.160;2023-03-23T05:13:27;12.40;99.90
57636;DHT22;43465;50.728;4.160;2023-03-23T05:15:54;12.50;99.90
57636;DHT22;43465;50.728;4.160;2023-03-23T05:18:20;12.50;99.90
57636;DHT22;43465;50.728;4.160;2023-03-23T05:20:46;12.50;99.90
57636;DHT22;43465;50.728;4.160;2023-03-23T05:23:12;12.50;99.90
57636;DHT22;43465;50.728;4.160;2023-03-23T05:25:39;12.50;99.90
57636;DHT22;43465;50.728;4.160;2023-03-23T05:28:09;12.50;99.90
57636;DHT22;43465;50.728;4.160;2023-03-23T05:30:37;12.50;99.90
57636;DHT22;43465;50.728;4.160;2023-03-23T05:33:04;12.50;99.90
57636;DHT22;43465;50.728;4.160;2023-03-23T05:35:30;12.50;99.90
57636;DHT22;43465;50.728;4.160;2023-03-23T05:37:56;12.50;99.90
57636;DHT22;43465;50.728;4.160;2023-03-23T05:40:25;12.60;99.90
57636;DHT22;43465;50.728;4.160;2023-03-23T05:42:52;12.60;99.90
57636;DHT22;43465;50.728;4.160;2023-03-23T05:45:18;12.60;99.90
57636;DHT22;43465;50.728;4.160;2023-03-23T05:47:44;12.50;99.90
57636;DHT22;43465;50.728;4.160;2023-03-23T05:50:11;12.60;99.90
57636;DHT22;43465;50.728;4.160;2023-03-23T05:52:38;12.60;99.90
57636;DHT22;43465;50.728;4.160;2023-03-23T05:55:05;12.60;99.90
57636;DHT22;43465;50.728;4.160;2023-03-23T05:57:31;12.60;99.90
57636;DHT22;43465;50.728;4.160;2023-03-23T05:59:57;12.60;99.90
57636;DHT22;43465;50.728;4.160;2023-03-23T06:02:24;12.70;99.90
57636;DHT22;43465;50.728;4.160;2023-03-23T06:04:51;12.60;99.90
57636;DHT22;43465;50.728;4.160;2023-03-23T06:07:25;12.70;99.90
57636;DHT22;43465;50.728;4.160;2023-03-23T06:09:51;12.60;99.90
57636;DHT22;43465;50.728;4.160;2023-03-23T06:12:17;12.70;99.90
57636;DHT22;43465;50.728;4.160;2023-03-23T06:14:47;12.70;99.90
57636;DHT22;43465;50.728;4.160;2023-03-23T06:17:14;12.70;99.90
57636;DHT22;43465;50.728;4.160;2023-03-23T06:19:40;12.70;99.90
57636;DHT22;43465;50.728;4.160;2023-03-23T06:22:06;12.70;99.90
57636;DHT22;43465;50.728;4.160;2023-03-23T06:24:31;12.70;99.90
57636;DHT22;43465;50.728;4.160;2023-03-23T06:26:58;12.70;99.90
57636;DHT22;43465;50.728;4.160;2023-03-23T06:29:24;12.70;99.90
57636;DHT22;43465;50.728;4.160;2023-03-23T06:31:54;12.70;99.90
57636;DHT22;43465;50.728;4.160;2023-03-23T06:34:21;12.70;99.90
57636;DHT22;43465;50.728;4.160;2023-03-23T06:36:47;12.70;99.90
57636;DHT22;43465;50.728;4.160;2023-03-23T06:39:12;12.60;99.90
57636;DHT22;43465;50.728;4.160;2023-03-23T06:41:39;12.60;99.90
57636;DHT22;43465;50.728;4.160;2023-03-23T06:44:05;12.60;99.90
57636;DHT22;43465;50.728;4.160;2023-03-23T06:46:31;12.70;99.90
57636;DHT22;43465;50.728;4.160;2023-03-23T06:48:57;12.60;99.90
57636;DHT22;43465;50.728;4.160;2023-03-23T06:51:23;12.70;99.90
57636;DHT22;43465;50.728;4.160;2023-03-23T06:53:49;12.70;99.90
57636;DHT22;43465;50.728;4.160;2023-03-23T06:56:14;12.70;99.90
57636;DHT22;43465;50.728;4.160;2023-03-23T06:58:40;12.60;99.90
57636;DHT22;43465;50.728;4.160;2023-03-23T07:01:11;12.70;99.90
57636;DHT22;43465;50.728;4.160;2023-03-23T07:03:36;12.70;99.90
57636;DHT22;43465;50.728;4.160;2023-03-23T07:06:03;12.70;99.90
57636;DHT22;43465;50.728;4.160;2023-03-23T07:08:29;12.70;99.90
57636;DHT22;43465;50.728;4.160;2023-03-23T07:10:56;12.70;99.90
57636;DHT22;43465;50.728;4.160;2023-03-23T07:13:22;12.70;99.90
57636;DHT22;43465;50.728;4.160;2023-03-23T07:15:48;12.60;99.90
57636;DHT22;43465;50.728;4.160;2023-03-23T07:18:15;12.30;99.90
57636;DHT22;43465;50.728;4.160;2023-03-23T07:20:40;11.90;99.90
57636;DHT22;43465;50.728;4.160;2023-03-23T07:23:06;11.70;99.90
57636;DHT22;43465;50.728;4.160;2023-03-23T07:25:33;11.60;99.90
57636;DHT22;43465;50.728;4.160;2023-03-23T07:28:02;11.60;99.90
57636;DHT22;43465;50.728;4.160;2023-03-23T07:30:29;11.60;99.90
57636;DHT22;43465;50.728;4.160;2023-03-23T07:32:56;11.70;99.90
57636;DHT22;43465;50.728;4.160;2023-03-23T07:35:22;11.70;99.90
57636;DHT22;43465;50.728;4.160;2023-03-23T07:37:48;11.70;99.90
57636;DHT22;43465;50.728;4.160;2023-03-23T07:40:15;11.70;99.90
57636;DHT22;43465;50.728;4.160;2023-03-23T07:42:45;11.70;99.90
57636;DHT22;43465;50.728;4.160;2023-03-23T07:45:15;11.60;99.90
57636;DHT22;43465;50.728;4.160;2023-03-23T07:47:41;11.50;99.90
57636;DHT22;43465;50.728;4.160;2023-03-23T07:50:07;11.40;99.90
57636;DHT22;43465;50.728;4.160;2023-03-23T07:52:34;11.40;99.90
57636;DHT22;43465;50.728;4.160;2023-03-23T07:55:00;11.30;99.90
57636;DHT22;43465;50.728;4.160;2023-03-23T07:57:30;11.20;99.90
57636;DHT22;43465;50.728;4.160;2023-03-23T07:59:56;11.10;99.90
57636;DHT22;43465;50.728;4.160;2023-03-23T08:02:23;11.00;99.90
57636;DHT22;43465;50.728;4.160;2023-03-23T08:04:49;11.00;99.90
57636;DHT22;43465;50.728;4.160;2023-03-23T08:07:15;10.90;99.90
57636;DHT22;43465;50.728;4.160;2023-03-23T08:09:45;10.80;99.90
57636;DHT22;43465;50.728;4.160;2023-03-23T08:12:12;10.80;99.90
57636;DHT22;43465;50.728;4.160;2023-03-23T08:14:38;10.80;99.90
57636;DHT22;43465;50.728;4.160;2023-03-23T08:17:05;10.80;99.90
57636;DHT22;43465;50.728;4.160;2023-03-23T08:19:31;10.80;99.90
57636;DHT22;43465;50.728;4.160;2023-03-23T08:22:04;10.80;99.90
57636;DHT22;43465;50.728;4.160;2023-03-23T08:24:30;10.80;99.90
57636;DHT22;43465;50.728;4.160;2023-03-23T08:26:56;10.80;99.90
57636;DHT22;43465;50.728;4.160;2023-03-23T08:29:22;10.80;99.90
57636;DHT22;43465;50.728;4.160;2023-03-23T08:31:47;10.80;99.90
57636;DHT22;43465;50.728;4.160;2023-03-23T08:34:13;10.70;99.90
57636;DHT22;43465;50.728;4.160;2023-03-23T08:36:40;10.70;99.90
57636;DHT22;43465;50.728;4.160;2023-03-23T08:39:09;10.70;99.90
57636;DHT22;43465;50.728;4.160;2023-03-23T08:41:34;10.80;99.90
57636;DHT22;43465;50.728;4.160;2023-03-23T08:44:00;10.90;99.90
57636;DHT22;43465;50.728;4.160;2023-03-23T08:46:27;10.90;99.90
57636;DHT22;43465;50.728;4.160;2023-03-23T08:48:53;10.90;99.90
57636;DHT22;43465;50.728;4.160;2023-03-23T08:51:19;10.90;99.90
57636;DHT22;43465;50.728;4.160;2023-03-23T08:53:45;10.90;99.90
57636;DHT22;43465;50.728;4.160;2023-03-23T08:56:11;10.90;99.90
57636;DHT22;43465;50.728;4.160;2023-03-23T08:58:38;11.00;99.90
57636;DHT22;43465;50.728;4.160;2023-03-23T09:01:06;11.10;99.90
57636;DHT22;43465;50.728;4.160;2023-03-23T09:03:33;11.20;99.90
57636;DHT22;43465;50.728;4.160;2023-03-23T09:06:01;11.20;99.90
57636;DHT22;43465;50.728;4.160;2023-03-23T09:08:28;11.20;99.90
57636;DHT22;43465;50.728;4.160;2023-03-23T09:11:06;11.30;99.90
57636;DHT22;43465;50.728;4.160;2023-03-23T09:13:33;11.30;99.90
57636;DHT22;43465;50.728;4.160;2023-03-23T09:16:00;11.40;99.90
57636;DHT22;43465;50.728;4.160;2023-03-23T09:18:26;11.50;99.90
57636;DHT22;43465;50.728;4.160;2023-03-23T09:20:52;11.50;99.90
57636;DHT22;43465;50.728;4.160;2023-03-23T09:23:18;11.70;99.90
57636;DHT22;43465;50.728;4.160;2023-03-23T09:25:46;11.70;99.90
57636;DHT22;43465;50.728;4.160;2023-03-23T09:28:12;11.70;99.90
57636;DHT22;43465;50.728;4.160;2023-03-23T09:30:39;11.80;99.90
57636;DHT22;43465;50.728;4.160;2023-03-23T09:33:07;11.80;99.90
57636;DHT22;43465;50.728;4.160;2023-03-23T09:35:34;11.80;99.90
57636;DHT22;43465;50.728;4.160;2023-03-23T09:38:02;11.90;99.90
57636;DHT22;43465;50.728;4.160;2023-03-23T09:40:43;12.00;99.90
57636;DHT22;43465;50.728;4.160;2023-03-23T09:48:58;12.40;99.90
57636;DHT22;43465;50.728;4.160;2023-03-23T09:51:44;12.50;99.90
57636;DHT22;43465;50.728;4.160;2023-03-23T09:54:38;12.60;99.90
57636;DHT22;43465;50.728;4.160;2023-03-23T10:00:18;12.80;99.90
57636;DHT22;43465;50.728;4.160;2023-03-23T10:02:59;12.90;99.90
57636;DHT22;43465;50.728;4.160;2023-03-23T10:05:39;13.00;99.90
57636;DHT22;43465;50.728;4.160;2023-03-23T10:08:14;13.00;99.90
57636;DHT22;43465;50.728;4.160;2023-03-23T10:15:58;13.00;99.90
57636;DHT22;43465;50.728;4.160;2023-03-23T10:18:27;13.10;99.90
57636;DHT22;43465;50.728;4.160;2023-03-23T10:20:58;13.20;99.90
57636;DHT22;43465;50.728;4.160;2023-03-23T10:23:40;13.20;99.90
57636;DHT22;43465;50.728;4.160;2023-03-23T10:32:03;13.30;99.90
57636;DHT22;43465;50.728;4.160;2023-03-23T10:37:19;13.40;99.90
57636;DHT22;43465;50.728;4.160;2023-03-23T10:39:57;13.50;99.90
57636;DHT22;43465;50.728;4.160;2023-03-23T10:44:56;13.60;99.90
57636;DHT22;43465;50.728;4.160;2023-03-23T10:47:22;13.70;99.90
57636;DHT22;43465;50.728;4.160;2023-03-23T10:49:49;13.90;99.90
57636;DHT22;43465;50.728;4.160;2023-03-23T10:52:30;14.00;99.90
57636;DHT22;43465;50.728;4.160;2023-03-23T10:55:12;14.10;99.90
57636;DHT22;43465;50.728;4.160;2023-03-23T10:57:44;14.20;99.90
57636;DHT22;43465;50.728;4.160;2023-03-23T11:00:20;14.20;99.90
57636;DHT22;43465;50.728;4.160;2023-03-23T11:03:06;14.30;99.90
57636;DHT22;43465;50.728;4.160;2023-03-23T11:05:37;14.40;99.90
57636;DHT22;43465;50.728;4.160;2023-03-23T11:08:11;14.40;99.90
57636;DHT22;43465;50.728;4.160;2023-03-23T11:13:16;14.50;99.90
57636;DHT22;43465;50.728;4.160;2023-03-23T11:15:44;14.50;99.90
57636;DHT22;43465;50.728;4.160;2023-03-23T11:18:18;14.70;99.90
57636;DHT22;43465;50.728;4.160;2023-03-23T11:20:44;14.80;99.90
57636;DHT22;43465;50.728;4.160;2023-03-23T11:23:21;14.80;99.90
57636;DHT22;43465;50.728;4.160;2023-03-23T11:26:14;14.90;99.90
57636;DHT22;43465;50.728;4.160;2023-03-23T11:28:48;15.00;99.90
57636;DHT22;43465;50.728;4.160;2023-03-23T11:31:22;15.20;99.90
57636;DHT22;43465;50.728;4.160;2023-03-23T11:34:01;15.30;99.90
57636;DHT22;43465;50.728;4.160;2023-03-23T11:36:37;15.20;99.90
57636;DHT22;43465;50.728;4.160;2023-03-23T11:39:29;15.10;99.90
57636;DHT22;43465;50.728;4.160;2023-03-23T11:41:58;15.10;99.90
57636;DHT22;43465;50.728;4.160;2023-03-23T11:44:32;15.20;99.90
57636;DHT22;43465;50.728;4.160;2023-03-23T11:47:10;15.30;99.90
57636;DHT22;43465;50.728;4.160;2023-03-23T11:50:04;15.50;99.90
57636;DHT22;43465;50.728;4.160;2023-03-23T11:55:22;15.60;99.90
57636;DHT22;43465;50.728;4.160;2023-03-23T11:57:49;15.70;99.90
57636;DHT22;43465;50.728;4.160;2023-03-23T12:00:20;15.70;99.90
57636;DHT22;43465;50.728;4.160;2023-03-23T12:02:52;15.80;99.90
57636;DHT22;43465;50.728;4.160;2023-03-23T12:05:44;15.80;99.90
57636;DHT22;43465;50.728;4.160;2023-03-23T12:25:31;15.80;99.90
57636;DHT22;43465;50.728;4.160;2023-03-23T12:45:37;16.30;99.90
57636;DHT22;43465;50.728;4.160;2023-03-23T12:48:09;16.30;99.90
57636;DHT22;43465;50.728;4.160;2023-03-23T12:53:30;16.40;99.90
57636;DHT22;43465;50.728;4.160;2023-03-23T12:58:47;16.70;99.90
57636;DHT22;43465;50.728;4.160;2023-03-23T13:01:27;16.70;99.90
57636;DHT22;43465;50.728;4.160;2023-03-23T13:04:29;16.80;99.90
57636;DHT22;43465;50.728;4.160;2023-03-23T13:06:57;16.80;99.90
57636;DHT22;43465;50.728;4.160;2023-03-23T13:10:33;16.80;99.90
57636;DHT22;43465;50.728;4.160;2023-03-23T13:12:26;16.60;99.90
57636;DHT22;43465;50.728;4.160;2023-03-23T13:17:51;16.80;99.90
57636;DHT22;43465;50.728;4.160;2023-03-23T13:20:44;16.80;99.90
57636;DHT22;43465;50.728;4.160;2023-03-23T13:23:28;16.70;99.90
57636;DHT22;43465;50.728;4.160;2023-03-23T13:28:26;16.30;99.90
57636;DHT22;43465;50.728;4.160;2023-03-23T13:31:17;16.00;99.90
57636;DHT22;43465;50.728;4.160;2023-03-23T13:33:50;15.80;99.90
57636;DHT22;43465;50.728;4.160;2023-03-23T13:36:24;15.70;99.90
57636;DHT22;43465;50.728;4.160;2023-03-23T13:38:50;15.70;99.90
57636;DHT22;43465;50.728;4.160;2023-03-23T13:41:18;15.60;99.90
57636;DHT22;43465;50.728;4.160;2023-03-23T13:43:47;15.40;99.90
57636;DHT22;43465;50.728;4.160;2023-03-23T13:48:49;14.50;99.90
57636;DHT22;43465;50.728;4.160;2023-03-23T13:57:19;14.80;99.90
57636;DHT22;43465;50.728;4.160;2023-03-23T13:59:54;15.00;99.90
57636;DHT22;43465;50.728;4.160;2023-03-23T14:02:41;15.20;99.90
57636;DHT22;43465;50.728;4.160;2023-03-23T14:07:59;15.30;99.90
57636;DHT22;43465;50.728;4.160;2023-03-23T14:11:19;15.50;99.90
57636;DHT22;43465;50.728;4.160;2023-03-23T14:13:33;15.70;99.90
57636;DHT22;43465;50.728;4.160;2023-03-23T14:16:05;15.70;99.90
57636;DHT22;43465;50.728;4.160;2023-03-23T14:18:39;15.70;99.90
57636;DHT22;43465;50.728;4.160;2023-03-23T14:21:06;15.70;99.90
57636;DHT22;43465;50.728;4.160;2023-03-23T14:23:33;15.50;99.90
57636;DHT22;43465;50.728;4.160;2023-03-23T14:26:02;15.10;99.90
57636;DHT22;43465;50.728;4.160;2023-03-23T14:28:36;14.90;99.90
57636;DHT22;43465;50.728;4.160;2023-03-23T14:31:03;14.70;99.90
57636;DHT22;43465;50.728;4.160;2023-03-23T14:33:28;14.50;99.90
57636;DHT22;43465;50.728;4.160;2023-03-23T14:35:57;14.90;99.90
57636;DHT22;43465;50.728;4.160;2023-03-23T14:38:24;15.60;99.90
57636;DHT22;43465;50.728;4.160;2023-03-23T14:40:54;16.20;99.90
57636;DHT22;43465;50.728;4.160;2023-03-23T14:43:25;16.20;99.90
57636;DHT22;43465;50.728;4.160;2023-03-23T14:45:55;16.20;99.90
57636;DHT22;43465;50.728;4.160;2023-03-23T14:48:22;16.30;99.90
57636;DHT22;43465;50.728;4.160;2023-03-23T14:51:04;16.40;99.90
57636;DHT22;43465;50.728;4.160;2023-03-23T14:53:36;16.50;99.90
57636;DHT22;43465;50.728;4.160;2023-03-23T14:56:10;16.90;99.90
57636;DHT22;43465;50.728;4.160;2023-03-23T14:58:36;17.20;99.90
57636;DHT22;43465;50.728;4.160;2023-03-23T15:01:10;17.60;99.90
57636;DHT22;43465;50.728;4.160;2023-03-23T15:03:45;17.70;99.90
57636;DHT22;43465;50.728;4.160;2023-03-23T15:06:16;17.50;99.90
57636;DHT22;43465;50.728;4.160;2023-03-23T15:08:43;17.30;99.90
57636;DHT22;43465;50.728;4.160;2023-03-23T15:13:47;16.70;99.90
57636;DHT22;43465;50.728;4.160;2023-03-23T15:16:19;16.60;99.90
57636;DHT22;43465;50.728;4.160;2023-03-23T15:18:51;16.50;99.90
57636;DHT22;43465;50.728;4.160;2023-03-23T15:21:24;16.30;99.90
57636;DHT22;43465;50.728;4.160;2023-03-23T15:23:51;16.20;99.90
57636;DHT22;43465;50.728;4.160;2023-03-23T15:26:26;16.10;99.90
57636;DHT22;43465;50.728;4.160;2023-03-23T15:31:32;15.90;99.90
57636;DHT22;43465;50.728;4.160;2023-03-23T15:34:02;15.70;99.90
57636;DHT22;43465;50.728;4.160;2023-03-23T15:36:33;15.70;99.90
57636;DHT22;43465;50.728;4.160;2023-03-23T15:38:59;15.70;99.90
57636;DHT22;43465;50.728;4.160;2023-03-23T15:41:30;15.70;99.90
57636;DHT22;43465;50.728;4.160;2023-03-23T15:44:12;15.90;99.90
57636;DHT22;43465;50.728;4.160;2023-03-23T15:46:51;16.10;99.90
57636;DHT22;43465;50.728;4.160;2023-03-23T15:49:17;16.20;99.90
57636;DHT22;43465;50.728;4.160;2023-03-23T15:51:43;16.10;99.90
57636;DHT22;43465;50.728;4.160;2023-03-23T15:54:15;15.90;99.90
57636;DHT22;43465;50.728;4.160;2023-03-23T15:56:44;15.80;99.90
57636;DHT22;43465;50.728;4.160;2023-03-23T15:59:11;15.70;99.90
57636;DHT22;43465;50.728;4.160;2023-03-23T16:01:38;15.70;99.90
57636;DHT22;43465;50.728;4.160;2023-03-23T16:04:11;15.80;99.90
57636;DHT22;43465;50.728;4.160;2023-03-23T16:06:38;15.70;99.90
57636;DHT22;43465;50.728;4.160;2023-03-23T16:09:05;15.70;99.90
57636;DHT22;43465;50.728;4.160;2023-03-23T16:11:32;15.80;99.90
57636;DHT22;43465;50.728;4.160;2023-03-23T16:13:58;16.00;99.90
57636;DHT22;43465;50.728;4.160;2023-03-23T16:16:31;16.20;99.90
57636;DHT22;43465;50.728;4.160;2023-03-23T16:18:58;16.40;99.90
57636;DHT22;43465;50.728;4.160;2023-03-23T16:21:24;16.60;99.90
57636;DHT22;43465;50.728;4.160;2023-03-23T16:23:50;16.90;99.90
57636;DHT22;43465;50.728;4.160;2023-03-23T16:26:16;17.10;99.90
57636;DHT22;43465;50.728;4.160;2023-03-23T16:28:43;17.00;99.90
57636;DHT22;43465;50.728;4.160;2023-03-23T16:31:09;17.00;99.90
57636;DHT22;43465;50.728;4.160;2023-03-23T16:33:35;17.00;99.90
57636;DHT22;43465;50.728;4.160;2023-03-23T16:36:01;17.20;99.90
57636;DHT22;43465;50.728;4.160;2023-03-23T16:38:27;17.00;99.90
57636;DHT22;43465;50.728;4.160;2023-03-23T16:40:52;16.80;99.90
57636;DHT22;43465;50.728;4.160;2023-03-23T16:43:18;16.70;99.90
57636;DHT22;43465;50.728;4.160;2023-03-23T16:45:45;16.70;99.90
57636;DHT22;43465;50.728;4.160;2023-03-23T16:48:12;16.50;99.90
57636;DHT22;43465;50.728;4.160;2023-03-23T16:50:39;16.30;99.90
57636;DHT22;43465;50.728;4.160;2023-03-23T16:53:06;16.10;99.90
57636;DHT22;43465;50.728;4.160;2023-03-23T16:55:33;16.00;99.90
57636;DHT22;43465;50.728;4.160;2023-03-23T16:57:59;15.80;99.90
57636;DHT22;43465;50.728;4.160;2023-03-23T17:00:25;15.70;99.90
57636;DHT22;43465;50.728;4.160;2023-03-23T17:02:52;15.60;99.90
57636;DHT22;43465;50.728;4.160;2023-03-23T17:05:22;15.60;99.90
57636;DHT22;43465;50.728;4.160;2023-03-23T17:07:48;15.50;99.90
57636;DHT22;43465;50.728;4.160;2023-03-23T17:10:15;15.50;99.90
57636;DHT22;43465;50.728;4.160;2023-03-23T17:12:44;15.50;99.90
57636;DHT22;43465;50.728;4.160;2023-03-23T17:15:11;15.40;99.90
57636;DHT22;43465;50.728;4.160;2023-03-23T17:17:37;15.40;99.90
57636;DHT22;43465;50.728;4.160;2023-03-23T17:20:04;15.40;99.90
57636;DHT22;43465;50.728;4.160;2023-03-23T17:22:30;15.50;99.90
57636;DHT22;43465;50.728;4.160;2023-03-23T17:24:55;15.50;99.90
57636;DHT22;43465;50.728;4.160;2023-03-23T17:27:22;15.50;99.90
57636;DHT22;43465;50.728;4.160;2023-03-23T17:29:48;15.40;99.90
57636;DHT22;43465;50.728;4.160;2023-03-23T17:32:16;15.40;99.90
57636;DHT22;43465;50.728;4.160;2023-03-23T17:34:42;15.40;99.90
57636;DHT22;43465;50.728;4.160;2023-03-23T17:37:08;15.40;99.90
57636;DHT22;43465;50.728;4.160;2023-03-23T17:39:34;15.40;99.90
57636;DHT22;43465;50.728;4.160;2023-03-23T17:42:00;15.30;99.90
57636;DHT22;43465;50.728;4.160;2023-03-23T17:44:26;15.20;99.90